地図

経路データ

SID SEASON NUMBER BASIN SUBBASIN NAME ISO_TIME NATURE LAT LON WMO_WIND WMO_PRES WMO_AGENCY TRACK_TYPE DIST2LAND LANDFALL IFLAG USA_AGENCY USA_ATCF_ID USA_LAT USA_LON USA_RECORD USA_STATUS USA_WIND USA_PRES USA_SSHS USA_R34_NE USA_R34_SE USA_R34_SW USA_R34_NW USA_R50_NE USA_R50_SE USA_R50_SW USA_R50_NW USA_R64_NE USA_R64_SE USA_R64_SW USA_R64_NW USA_POCI USA_ROCI USA_RMW USA_EYE TOKYO_LAT TOKYO_LON TOKYO_GRADE TOKYO_WIND TOKYO_PRES TOKYO_R50_DIR TOKYO_R50_LONG TOKYO_R50_SHORT TOKYO_R30_DIR TOKYO_R30_LONG TOKYO_R30_SHORT TOKYO_LAND CMA_LAT CMA_LON CMA_CAT CMA_WIND CMA_PRES HKO_LAT HKO_LON HKO_CAT HKO_WIND HKO_PRES NEWDELHI_LAT NEWDELHI_LON NEWDELHI_GRADE NEWDELHI_WIND NEWDELHI_PRES NEWDELHI_CI NEWDELHI_DP NEWDELHI_POCI REUNION_LAT REUNION_LON REUNION_TYPE REUNION_WIND REUNION_PRES REUNION_TNUM REUNION_CI REUNION_RMW REUNION_R34_NE REUNION_R34_SE REUNION_R34_SW REUNION_R34_NW REUNION_R50_NE REUNION_R50_SE REUNION_R50_SW REUNION_R50_NW REUNION_R64_NE REUNION_R64_SE REUNION_R64_SW REUNION_R64_NW BOM_LAT BOM_LON BOM_TYPE BOM_WIND BOM_PRES BOM_TNUM BOM_CI BOM_RMW BOM_R34_NE BOM_R34_SE BOM_R34_SW BOM_R34_NW BOM_R50_NE BOM_R50_SE BOM_R50_SW BOM_R50_NW BOM_R64_NE BOM_R64_SE BOM_R64_SW BOM_R64_NW BOM_ROCI BOM_POCI BOM_EYE BOM_POS_METHOD BOM_PRES_METHOD NADI_LAT NADI_LON NADI_CAT NADI_WIND NADI_PRES WELLINGTON_LAT WELLINGTON_LON WELLINGTON_WIND WELLINGTON_PRES DS824_LAT DS824_LON DS824_STAGE DS824_WIND DS824_PRES TD9636_LAT TD9636_LON TD9636_STAGE TD9636_WIND TD9636_PRES TD9635_LAT TD9635_LON TD9635_WIND TD9635_PRES TD9635_ROCI NEUMANN_LAT NEUMANN_LON NEUMANN_CLASS NEUMANN_WIND NEUMANN_PRES MLC_LAT MLC_LON MLC_CLASS MLC_WIND MLC_PRES USA_GUST BOM_GUST BOM_GUST_PER REUNION_GUST REUNION_GUST_PER USA_SEAHGT USA_SEARAD_NE USA_SEARAD_SE USA_SEARAD_SW USA_SEARAD_NW STORM_SPEED STORM_DIR
1946100S14153 1946 26 SP EA NOT_NAMED 1946-04-09 12:00:00 TS -13.6000 153.300 main 439 439 O________O____ jtwc_sh SH211946 -13.6000 153.300 -1 -13.6000 153.300 TC 1 51
1946100S14153 1946 26 SP EA NOT_NAMED 1946-04-09 15:00:00 TS -13.5750 153.340 main 439 439 P________P____ SH211946 -13.5750 153.340 -1 -13.5750 153.340 TC 0 0
1946100S14153 1946 26 SP EA NOT_NAMED 1946-04-09 18:00:00 TS -13.6000 153.300 main 439 432 O________O____ jtwc_sh SH211946 -13.6000 153.300 -1 -13.6000 153.300 TC 3 238
1946100S14153 1946 26 SP EA NOT_NAMED 1946-04-09 21:00:00 TS -13.7124 153.117 main 434 430 P________P____ SH211946 -13.7124 153.117 -1 -13.7124 153.117 TC 6 238
1946100S14153 1946 26 SP EA NOT_NAMED 1946-04-10 00:00:00 TS -13.9000 152.800 main 434 428 O________O____ jtwc_sh SH211946 -13.9000 152.800 -1 -13.9000 152.800 TC 8 239
1946100S14153 1946 26 SP EA NOT_NAMED 1946-04-10 03:00:00 TS -14.1350 152.388 main 433 433 P________P____ SH211946 -14.1350 152.388 -1 -14.1350 152.388 TC 10 240
1946100S14153 1946 26 SP EA NOT_NAMED 1946-04-10 06:00:00 TS -14.4000 151.900 main 445 441 O________O____ jtwc_sh SH211946 -14.4000 151.900 -1 -14.4000 151.900 TC 11 241
1946100S14153 1946 26 SP EA NOT_NAMED 1946-04-10 09:00:00 TS -14.6422 151.437 main 450 450 P________P____ SH211946 -14.6422 151.437 -1 -14.6422 151.437 TC 11 243
1946100S14153 1946 26 SP EA NOT_NAMED 1946-04-10 12:00:00 TS -14.9000 150.900 main 473 472 O________O____ jtwc_sh SH211946 -14.9000 150.900 -1 -14.9000 150.900 TC 13 245
1946100S14153 1946 26 SP EA NOT_NAMED 1946-04-10 15:00:00 TS -15.1927 150.215 main 501 419 P________P____ SH211946 -15.1927 150.215 -1 -15.1927 150.215 TC 15 246
1946100S14153 1946 26 SP EA NOT_NAMED 1946-04-10 18:00:00 TS -15.5000 149.500 main 419 347 O________O____ jtwc_sh SH211946 -15.5000 149.500 -1 -15.5000 149.500 TC 15 244
1946100S14153 1946 26 SP EA NOT_NAMED 1946-04-10 21:00:00 TS -15.8300 148.833 main 337 274 P________P____ SH211946 -15.8300 148.833 -1 -15.8300 148.833 TC 13 243
1946100S14153 1946 26 SP EA NOT_NAMED 1946-04-11 00:00:00 TS -16.1000 148.300 main 274 241 O________O____ jtwc_sh SH211946 -16.1000 148.300 -1 -16.1000 148.300 TC 9 244
1946100S14153 1946 26 SP EA NOT_NAMED 1946-04-11 03:00:00 TS -16.2297 147.997 main 241 217 P________P____ SH211946 -16.2297 147.997 -1 -16.2297 147.997 TC 5 247
1946100S14153 1946 26 SP EA NOT_NAMED 1946-04-11 06:00:00 TS -16.3000 147.800 main 217 193 O________O____ jtwc_sh SH211946 -16.3000 147.800 -1 -16.3000 147.800 TC 5 249
1946100S14153 1946 26 SP EA NOT_NAMED 1946-04-11 09:00:00 TS -16.3924 147.557 main 193 159 P________P____ SH211946 -16.3924 147.557 -1 -16.3924 147.557 TC 5 247
1946100S14153 1946 26 SP EA NOT_NAMED 1946-04-11 12:00:00 TS -16.5000 147.300 main 159 125 O________O____ jtwc_sh SH211946 -16.5000 147.300 -1 -16.5000 147.300 TC 6 245
1946100S14153 1946 26 SP EA NOT_NAMED 1946-04-11 15:00:00 TS -16.6425 147.000 main 125 88 P________P____ SH211946 -16.6425 147.000 -1 -16.6425 147.000 TC 6 242
1946100S14153 1946 26 SP EA NOT_NAMED 1946-04-11 18:00:00 TS -16.8000 146.700 main 88 53 O________O____ jtwc_sh SH211946 -16.8000 146.700 -1 -16.8000 146.700 TC 6 240
1946100S14153 1946 26 SP EA NOT_NAMED 1946-04-11 21:00:00 TS -16.9650 146.420 main 53 30 P________P____ SH211946 -16.9650 146.420 -1 -16.9650 146.420 TC 6 238
1946100S14153 1946 26 SP EA NOT_NAMED 1946-04-12 00:00:00 TS -17.1000 146.200 main 30 15 O________O____ jtwc_sh SH211946 -17.1000 146.200 -1 -17.1000 146.200 TC 4 241
1946100S14153 1946 26 SP EA NOT_NAMED 1946-04-12 03:00:00 TS -17.1575 146.062 main 15 10 P________P____ SH211946 -17.1575 146.062 -1 -17.1575 146.062 TC 2 242
1946100S14153 1946 26 SP EA NOT_NAMED 1946-04-12 06:00:00 TS -17.2000 146.000 main 10 0 O________O____ jtwc_sh SH211946 -17.2000 146.000 -1 -17.2000 146.000 TC 2 208
1946100S14153 1946 26 SP EA NOT_NAMED 1946-04-12 09:00:00 TS -17.2925 145.992 main 0 0 P________P____ SH211946 -17.2925 145.992 -1 -17.2925 145.992 TC 2 172
1946100S14153 1946 26 SP EA NOT_NAMED 1946-04-12 12:00:00 TS -17.4000 146.000 main 0 0 O________O____ jtwc_sh SH211946 -17.4000 146.000 -1 -17.4000 146.000 TC 2 193
1946100S14153 1946 26 SP EA NOT_NAMED 1946-04-12 15:00:00 TS -17.4925 145.950 main 0 0 P________P____ SH211946 -17.4925 145.950 -1 -17.4925 145.950 TC 2 207
1946100S14153 1946 26 SP EA NOT_NAMED 1946-04-12 18:00:00 TS -17.6000 145.900 main 0 0 O________O____ jtwc_sh SH211946 -17.6000 145.900 -1 -17.6000 145.900 TC 3 200
1946100S14153 1946 26 SP EA NOT_NAMED 1946-04-12 21:00:00 TS -17.7499 145.848 main 0 0 P________P____ SH211946 -17.7499 145.848 -1 -17.7499 145.848 TC 3 0
1946100S14153 1946 26 SP EA NOT_NAMED 1946-04-13 00:00:00 TS -17.9000 145.900 main 0 0 O________O____ jtwc_sh SH211946 -17.9000 145.900 -1 -17.9000 145.900 TC 4 136
1946100S14153 1946 26 SP EA NOT_NAMED 1946-04-13 03:00:00 TS -18.0073 146.110 main 10 10 P________P____ SH211946 -18.0073 146.110 -1 -18.0073 146.110 TC 6 109
1946100S14153 1946 26 SP EA NOT_NAMED 1946-04-13 06:00:00 TS -18.1000 146.500 main 52 52 O________O____ jtwc_sh SH211946 -18.1000 146.500 -1 -18.1000 146.500 TC 9 101
1946100S14153 1946 26 SP EA NOT_NAMED 1946-04-13 09:00:00 TS -18.1852 147.063 main 95 95 P________P____ SH211946 -18.1852 147.063 -1 -18.1852 147.063 TC 12 100
1946100S14153 1946 26 SP EA NOT_NAMED 1946-04-13 12:00:00 TS -18.3000 147.700 main 127 123 O________O____ jtwc_sh SH211946 -18.3000 147.700 -1 -18.3000 147.700 TC 12 105
1946100S14153 1946 26 SP EA NOT_NAMED 1946-04-13 15:00:00 TS -18.4922 148.250 main 131 131 P________P____ SH211946 -18.4922 148.250 -1 -18.4922 148.250 TC 11 111
1946100S14153 1946 26 SP EA NOT_NAMED 1946-04-13 18:00:00 TS -18.7000 148.800 main 154 152 O________O____ jtwc_sh SH211946 -18.7000 148.800 -1 -18.7000 148.800 TC 11 109
1946100S14153 1946 26 SP EA NOT_NAMED 1946-04-13 21:00:00 TS -18.8723 149.385 main 167 167 P________P____ SH211946 -18.8723 149.385 -1 -18.8723 149.385 TC 12 105
1946100S14153 1946 26 SP EA NOT_NAMED 1946-04-14 00:00:00 TS -19.0000 150.000 main 192 192 O________O____ jtwc_sh SH211946 -19.0000 150.000 -1 -19.0000 150.000 TC 12 99
1946100S14153 1946 26 SP EA NOT_NAMED 1946-04-14 03:00:00 TS -19.0648 150.643 main 231 231 P________P____ SH211946 -19.0648 150.643 -1 -19.0648 150.643 TC 12 95
1946100S14153 1946 26 SP EA NOT_NAMED 1946-04-14 06:00:00 TS -19.1000 151.300 main 294 294 O________O____ jtwc_sh SH211946 -19.1000 151.300 -1 -19.1000 151.300 TC 12 94
1946100S14153 1946 26 SP EA NOT_NAMED 1946-04-14 09:00:00 TS -19.1573 151.957 main 355 355 P________P____ SH211946 -19.1573 151.957 -1 -19.1573 151.957 TC 12 95
1946100S14153 1946 26 SP EA NOT_NAMED 1946-04-14 12:00:00 TS -19.2000 152.600 main 408 408 O________O____ jtwc_sh SH211946 -19.2000 152.600 -1 -19.2000 152.600 TC 12 92
1946100S14153 1946 26 SP EA NOT_NAMED 1946-04-14 15:00:00 TS -19.1997 153.208 main 442 442 P________P____ SH211946 -19.1997 153.208 -1 -19.1997 153.208 TC 11 90
1946100S14153 1946 26 SP EA NOT_NAMED 1946-04-14 18:00:00 TS -19.2000 153.800 main 481 481 O________O____ jtwc_sh SH211946 -19.2000 153.800 -1 -19.2000 153.800 TC 11 92
1946100S14153 1946 26 SP EA NOT_NAMED 1946-04-14 21:00:00 TS -19.2423 154.400 main 525 525 P________P____ SH211946 -19.2423 154.400 -1 -19.2423 154.400 TC 11 95
1946100S14153 1946 26 SP EA NOT_NAMED 1946-04-15 00:00:00 TS -19.3000 155.000 main 564 564 O________O____ jtwc_sh SH211946 -19.3000 155.000 -1 -19.3000 155.000 TC 11 95
1946100S14153 1946 26 SP EA NOT_NAMED 1946-04-15 03:00:00 TS -19.3497 155.593 main 613 606 P________P____ SH211946 -19.3497 155.593 -1 -19.3497 155.593 TC 11 95
1946100S14153 1946 26 SP EA NOT_NAMED 1946-04-15 06:00:00 TS -19.4000 156.200 main 659 659 O________O____ jtwc_sh SH211946 -19.4000 156.200 -1 -19.4000 156.200 TC 12 95
1946100S14153 1946 26 SP EA NOT_NAMED 1946-04-15 09:00:00 TS -19.4498 156.843 main 703 685 P________P____ SH211946 -19.4498 156.843 -1 -19.4498 156.843 TC 12 95
1946100S14153 1946 26 SP EA NOT_NAMED 1946-04-15 12:00:00 TS -19.5000 157.500 main 685 621 O________O____ jtwc_sh SH211946 -19.5000 157.500 -1 -19.5000 157.500 TC 12 95
1946100S14153 1946 26 SP EA NOT_NAMED 1946-04-15 15:00:00 TS -19.5573 158.150 main 621 549 P________P____ SH211946 -19.5573 158.150 -1 -19.5573 158.150 TC 12 95
1946100S14153 1946 26 SP EA NOT_NAMED 1946-04-15 18:00:00 TS -19.6000 158.800 main 549 487 O________O____ jtwc_sh SH211946 -19.6000 158.800 -1 -19.6000 158.800 TC 12 92
1946100S14153 1946 26 SP EA NOT_NAMED 1946-04-15 21:00:00 TS -19.6105 159.450 main 476 415 P________P____ SH211946 -19.6105 159.450 -1 -19.6105 159.450 TC 12 90
1946100S14153 1946 26 SP MM NOT_NAMED 1946-04-16 00:00:00 TS -19.6000 160.100 main 415 O________O____ jtwc_sh SH211946 -19.6000 160.100 -1 -19.6000 160.100 TC 12 89

デジタル台風データ・検索

IBTrACS Databaseについて

本データベースは、米国NOAAが公開する1842年以降の世界の熱帯低気圧のベストトラックデータアーカイブInternational Best Track Archive for Climate Stewardship (IBTrACS)を、ウェブで閲覧しやすい形式に変換したものです。

最終更新日:2021-10-21